Time;durP1;ratioP1;P1;durP2;ratioP2;P2;SDS_P1;SDS_P2;PMS_P1;PMS_P2;Temp;Humidity;BMP_temperature;BMP_pressure;BME280_temperature;BME280_humidity;BME280_pressure;Samples;Min_cycle;Max_cycle;Signal;HPM_P1;HPM_P2
2024/02/11 00:00:16;;;;;;;29.13;19.57;;;;;;;9.32;100.00;98113.34;4998037;28;20231;-78
2024/02/11 00:02:44;;;;;;;30.70;19.77;;;;;;;9.30;100.00;98112.69;4997844;28;20223;-78
2024/02/11 00:05:11;;;;;;;29.80;19.53;;;;;;;9.28;100.00;98119.13;4997168;28;20215;-79
2024/02/11 00:07:39;;;;;;;30.40;20.37;;;;;;;9.29;100.00;98112.84;4987542;28;20203;-78
2024/02/11 00:10:08;;;;;;;30.40;20.13;;;;;;;9.26;100.00;98115.78;4996132;28;20239;-79
2024/02/11 00:12:35;;;;;;;31.03;20.00;;;;;;;9.25;100.00;98109.63;4997775;28;20203;-78
2024/02/11 00:15:03;;;;;;;31.03;20.40;;;;;;;9.27;100.00;98112.97;4997210;28;20215;-78
2024/02/11 00:17:29;;;;;;;29.03;19.63;;;;;;;9.27;100.00;98102.34;4997358;28;20215;-78
2024/02/11 00:19:59;;;;;;;31.57;21.37;;;;;;;9.30;100.00;98099.41;4996804;28;20237;-79
2024/02/11 00:22:25;;;;;;;31.00;20.37;;;;;;;9.33;100.00;98101.72;4995828;28;20223;-78
2024/02/11 00:24:53;;;;;;;32.17;20.50;;;;;;;9.30;100.00;98101.22;4996178;28;20219;-78
2024/02/11 00:27:20;;;;;;;32.00;20.33;;;;;;;9.30;100.00;98099.41;4996745;28;20780;-78
2024/02/11 00:29:46;;;;;;;28.80;19.70;;;;;;;9.28;100.00;98098.72;4996413;28;20238;-78
2024/02/11 00:32:13;;;;;;;30.93;19.97;;;;;;;9.29;100.00;98096.91;4996689;28;20207;-79
2024/02/11 00:34:39;;;;;;;30.13;19.97;;;;;;;9.28;100.00;98088.09;4995883;28;20212;-79
2024/02/11 00:37:10;;;;;;;32.97;20.63;;;;;;;9.29;100.00;98084.44;4995468;28;20656;-78
2024/02/11 00:39:37;;;;;;;31.70;20.77;;;;;;;9.28;100.00;98088.09;4994342;28;20254;-79
2024/02/11 00:42:04;;;;;;;30.03;20.37;;;;;;;9.29;100.00;98088.94;4994494;28;20221;-77
2024/02/11 00:44:31;;;;;;;29.93;19.37;;;;;;;9.30;100.00;98098.56;4994643;28;20208;-79
2024/02/11 00:46:58;;;;;;;30.20;19.83;;;;;;;9.25;100.00;98088.38;4995660;28;20238;-77
2024/02/11 00:49:25;;;;;;;31.67;21.00;;;;;;;9.27;100.00;98093.56;4996293;28;20306;-76
2024/02/11 00:51:54;;;;;;;26.97;19.93;;;;;;;9.27;100.00;98085.59;4995950;28;20207;-77
2024/02/11 00:54:21;;;;;;;31.20;20.70;;;;;;;9.27;100.00;98085.59;4996069;28;20250;-76
2024/02/11 00:56:54;;;;;;;31.97;20.57;;;;;;;9.26;100.00;98081.25;4995264;28;20207;-78
2024/02/11 00:59:21;;;;;;;33.03;22.00;;;;;;;9.27;100.00;98097.03;4995579;28;20266;-79
2024/02/11 01:01:48;;;;;;;29.53;20.50;;;;;;;9.26;100.00;98095.38;4996277;28;20211;-76
2024/02/11 01:04:15;;;;;;;28.90;20.90;;;;;;;9.27;100.00;98094.38;4995935;28;20269;-78
2024/02/11 01:06:41;;;;;;;27.73;19.00;;;;;;;9.28;100.00;98096.06;4995144;28;20212;-78
2024/02/11 01:09:08;;;;;;;26.33;19.83;;;;;;;9.28;100.00;98085.44;4986548;28;20229;-78
2024/02/11 01:11:36;;;;;;;26.23;19.30;;;;;;;9.28;100.00;98085.44;4995501;28;20266;-77
2024/02/11 01:14:02;;;;;;;28.17;19.53;;;;;;;9.27;100.00;98094.38;4995576;28;20200;-77
2024/02/11 01:16:29;;;;;;;29.03;19.83;;;;;;;9.26;100.00;98092.72;4995983;28;20216;-78
2024/02/11 01:18:55;;;;;;;29.50;19.90;;;;;;;9.26;100.00;98092.72;4996017;28;20747;-78
2024/02/11 01:21:23;;;;;;;28.57;20.23;;;;;;;9.25;100.00;98095.53;4996660;28;20212;-79
2024/02/11 01:23:50;;;;;;;27.17;19.20;;;;;;;9.25;100.00;98090.22;4996678;28;20232;-79
2024/02/11 01:26:16;;;;;;;27.53;20.13;;;;;;;9.28;100.00;98092.56;5001733;28;20207;-78
2024/02/11 01:28:44;;;;;;;28.20;20.93;;;;;;;9.26;100.00;98083.91;4998406;28;20843;-78
2024/02/11 01:31:11;;;;;;;28.63;19.40;;;;;;;9.26;100.00;98091.88;4993337;28;20208;-77
2024/02/11 01:33:37;;;;;;;30.00;19.87;;;;;;;9.27;100.00;98085.59;4976967;28;20212;-78
2024/02/11 01:36:04;;;;;;;27.40;20.17;;;;;;;9.25;100.00;98090.22;4976510;28;20212;-77
2024/02/11 01:38:31;;;;;;;30.20;20.30;;;;;;;9.24;100.00;98072.59;4976513;28;20230;-78
2024/02/11 01:40:57;;;;;;;28.60;19.87;;;;;;;9.23;100.00;98078.91;4979976;28;20621;-77
2024/02/11 01:43:25;;;;;;;29.00;20.70;;;;;;;9.24;100.00;98077.91;4996097;28;20319;-77
2024/02/11 01:45:53;;;;;;;26.07;19.97;;;;;;;9.23;100.00;98077.06;4996079;28;20242;-77
2024/02/11 01:48:20;;;;;;;27.60;20.27;;;;;;;9.19;100.00;98078.34;4995365;28;20264;-77
2024/02/11 01:50:52;;;;;;;28.07;20.63;;;;;;;9.19;100.00;98082.84;4995900;28;20242;-76
2024/02/11 01:53:21;;;;;;;28.73;20.97;;;;;;;9.18;100.00;98087.31;4999473;28;20223;-77
2024/02/11 01:55:49;;;;;;;26.73;19.87;;;;;;;9.18;100.00;98084.66;4999478;28;20246;-77
2024/02/11 01:58:15;;;;;;;28.87;20.07;;;;;;;9.16;100.00;98078.66;4998652;28;20222;-78
2024/02/11 02:00:43;;;;;;;32.27;21.70;;;;;;;9.16;100.00;98073.34;4999152;28;20607;-78
2024/02/11 02:03:14;;;;;;;32.70;21.10;;;;;;;9.17;100.00;98076.84;4998657;28;20705;-79
2024/02/11 02:05:41;;;;;;;30.67;21.77;;;;;;;9.15;100.00;98073.50;4998937;28;20188;-77
2024/02/11 02:08:08;;;;;;;31.10;21.70;;;;;;;9.15;100.00;98078.81;4998664;28;20445;-78
2024/02/11 02:10:35;;;;;;;34.43;21.67;;;;;;;9.15;100.00;98079.63;4998260;28;20254;-77
2024/02/11 02:13:02;;;;;;;33.23;22.17;;;;;;;9.13;100.00;98086.94;4998892;28;20226;-78
2024/02/11 02:15:28;;;;;;;32.50;22.60;;;;;;;9.14;100.00;98085.94;4997958;28;20204;-78
2024/02/11 02:17:55;;;;;;;30.07;20.87;;;;;;;9.15;100.00;98081.47;4997756;28;20211;-78
2024/02/11 02:20:23;;;;;;;33.60;21.03;;;;;;;9.14;100.00;98085.94;4997997;28;20708;-78
2024/02/11 02:22:51;;;;;;;29.53;20.87;;;;;;;9.14;100.00;98082.44;4998554;28;20212;-78
2024/02/11 02:25:17;;;;;;;35.57;21.43;;;;;;;9.16;100.00;98080.47;5000630;28;20723;-77
2024/02/11 02:27:44;;;;;;;32.43;21.10;;;;;;;9.17;100.00;98079.50;4997863;28;20211;-78
2024/02/11 02:30:11;;;;;;;31.97;20.63;;;;;;;9.16;100.00;98075.16;4998511;28;20234;-78
2024/02/11 02:32:38;;;;;;;32.63;21.93;;;;;;;9.17;100.00;98074.19;4999938;28;20215;-77
2024/02/11 02:35:05;;;;;;;37.33;23.80;;;;;;;9.17;100.00;98082.16;4999852;28;20216;-78
2024/02/11 02:37:32;;;;;;;36.93;22.97;;;;;;;9.15;100.00;98079.63;4998769;28;20203;-78
2024/02/11 02:39:59;;;;;;;34.73;22.53;;;;;;;9.15;100.00;98066.38;4998284;28;20636;-78
2024/02/11 02:42:26;;;;;;;38.03;22.93;;;;;;;9.13;100.00;98072.84;4998761;28;20716;-78
2024/02/11 02:44:52;;;;;;;38.30;23.40;;;;;;;9.13;100.00;98062.22;4999801;28;20224;-77
2024/02/11 02:47:19;;;;;;;34.37;23.20;;;;;;;9.14;100.00;98069.16;5000914;28;20214;-79
2024/02/11 02:49:45;;;;;;;34.20;21.33;;;;;;;9.13;100.00;98062.22;5001773;28;20227;-77
2024/02/11 02:52:12;;;;;;;39.27;22.93;;;;;;;9.14;100.00;98053.22;5000939;28;20203;-78
2024/02/11 02:54:43;;;;;;;36.03;22.43;;;;;;;9.15;100.00;98057.56;5000885;28;20204;-78
2024/02/11 02:57:12;;;;;;;36.70;23.97;;;;;;;9.12;100.00;98050.75;4999973;28;20434;-79
2024/02/11 02:59:38;;;;;;;41.57;23.80;;;;;;;9.10;100.00;98057.19;5000160;28;20235;-78
2024/02/11 03:02:05;;;;;;;40.63;22.80;;;;;;;9.13;100.00;98056.91;4999079;28;20213;-78
2024/02/11 03:04:31;;;;;;;38.23;23.23;;;;;;;9.12;100.00;98065.84;4997491;28;20231;-77
2024/02/11 03:06:58;;;;;;;43.37;23.80;;;;;;;9.14;100.00;98062.03;4997956;28;20203;-77
2024/02/11 03:09:24;;;;;;;41.87;25.03;;;;;;;9.09;100.00;98067.00;4997362;28;20239;-77
2024/02/11 03:11:51;;;;;;;40.53;23.80;;;;;;;9.09;100.00;98055.53;5015290;28;20234;-78
2024/02/11 03:14:19;;;;;;;43.10;24.07;;;;;;;9.10;100.00;98063.34;5011523;28;20621;-79
2024/02/11 03:16:46;;;;;;;46.67;25.57;;;;;;;9.13;100.00;98060.41;4997581;28;20574;-78
2024/02/11 03:19:14;;;;;;;42.10;26.33;;;;;;;9.14;100.00;98059.38;4997265;28;20315;-78
2024/02/11 03:21:41;;;;;;;43.73;24.13;;;;;;;9.13;100.00;98070.19;4996767;28;20216;-79
2024/02/11 03:24:08;;;;;;;42.83;24.43;;;;;;;9.13;100.00;98063.06;4997699;28;20235;-78
2024/02/11 03:26:34;;;;;;;40.27;25.03;;;;;;;9.13;100.00;98072.84;4997475;28;20262;-78
2024/02/11 03:29:01;;;;;;;44.93;25.33;;;;;;;9.10;100.00;98067.81;4997922;28;20220;-77
2024/02/11 03:31:29;;;;;;;44.57;26.37;;;;;;;9.08;100.00;98073.28;4997174;28;20203;-78
2024/02/11 03:33:55;;;;;;;42.00;24.67;;;;;;;9.08;100.00;98065.31;4997865;28;20204;-78
2024/02/11 03:36:21;;;;;;;49.63;25.13;;;;;;;9.11;100.00;98080.94;4999123;28;20597;-78
2024/02/11 03:38:48;;;;;;;48.00;26.17;;;;;;;9.13;100.00;98070.19;4998447;28;20207;-80
2024/02/11 03:41:17;;;;;;;49.13;27.47;;;;;;;9.11;100.00;98077.47;4997854;28;20219;-78
2024/02/11 03:43:44;;;;;;;47.67;27.27;;;;;;;9.11;100.00;98077.47;4999263;28;20743;-78
2024/02/11 03:46:10;;;;;;;47.97;27.13;;;;;;;9.13;100.00;98078.97;4998296;28;20214;-78
2024/02/11 03:48:38;;;;;;;51.10;27.33;;;;;;;9.18;100.00;98086.47;4999246;28;20302;-78
2024/02/11 03:51:06;;;;;;;48.73;27.50;;;;;;;9.13;100.00;98084.28;4978973;28;20208;-78
2024/02/11 03:53:33;;;;;;;53.40;28.43;;;;;;;9.11;100.00;98080.13;4986143;28;20200;-79
2024/02/11 03:56:04;;;;;;;47.03;26.80;;;;;;;9.12;100.00;98077.31;4998813;28;20965;-77
2024/02/11 03:58:30;;;;;;;53.97;28.33;;;;;;;9.10;100.00;98081.09;4999263;28;20195;-78
2024/02/11 04:00:57;;;;;;;47.70;27.13;;;;;;;9.11;100.00;98080.13;4997846;28;20234;-78
2024/02/11 04:03:23;;;;;;;49.20;27.27;;;;;;;9.09;100.00;98082.09;4998664;28;20218;-78
2024/02/11 04:05:52;;;;;;;50.57;27.37;;;;;;;9.08;100.00;98083.91;4998667;28;20243;-78
2024/02/11 04:08:23;;;;;;;48.97;27.17;;;;;;;9.09;100.00;98087.41;4997782;28;20243;-76
2024/02/11 04:10:52;;;;;;;49.40;27.33;;;;;;;9.04;100.00;98083.34;4997872;28;20227;-78
2024/02/11 04:13:23;;;;;;;52.03;27.77;;;;;;;9.08;100.00;98085.72;4998778;28;20854;-79
2024/02/11 04:15:51;;;;;;;47.77;26.63;;;;;;;9.06;100.00;98080.56;4997176;28;20192;-77
2024/02/11 04:18:21;;;;;;;48.00;27.33;;;;;;;9.05;100.00;98077.06;4999317;28;20222;-77
2024/02/11 04:20:48;;;;;;;50.77;27.67;;;;;;;9.07;100.00;98084.88;4999385;28;20227;-77
2024/02/11 04:23:16;;;;;;;47.10;25.63;;;;;;;9.07;100.00;98084.06;4998547;28;20283;-78
2024/02/11 04:25:45;;;;;;;45.57;26.03;;;;;;;9.04;100.00;98078.06;4999080;28;20207;-78
2024/02/11 04:28:12;;;;;;;47.10;27.53;;;;;;;9.04;100.00;98090.50;4998871;28;20204;-77
2024/02/11 04:30:42;;;;;;;45.53;26.77;;;;;;;9.04;100.00;98090.50;4998399;28;20251;-78
2024/02/11 04:33:14;;;;;;;46.30;26.03;;;;;;;9.06;100.00;98093.84;4996463;28;20645;-79
2024/02/11 04:35:40;;;;;;;48.37;26.30;;;;;;;9.04;100.00;98091.31;4996851;28;20579;-79
2024/02/11 04:38:12;;;;;;;43.83;24.73;;;;;;;9.04;100.00;98095.78;4996871;28;20215;-79
2024/02/11 04:40:40;;;;;;;45.83;25.43;;;;;;;9.04;100.00;98095.78;4996925;28;20673;-78
2024/02/11 04:43:07;;;;;;;46.93;26.13;;;;;;;9.04;100.00;98104.59;4997394;28;20298;-78
2024/02/11 04:45:37;;;;;;;43.97;25.33;;;;;;;9.03;100.00;98102.94;4996595;28;20598;-78
2024/02/11 04:48:04;;;;;;;49.63;25.43;;;;;;;9.07;100.00;98105.28;4996845;28;20203;-78
2024/02/11 04:50:32;;;;;;;46.90;26.53;;;;;;;9.08;100.00;98099.00;4996792;28;20222;-80
2024/02/11 04:53:02;;;;;;;45.87;24.97;;;;;;;9.08;100.00;98102.50;4996330;28;20219;-78
2024/02/11 04:55:38;;;;;;;48.77;24.80;;;;;;;9.05;100.00;98095.66;4986293;28;20215;-77
2024/02/11 04:58:11;;;;;;;44.57;25.90;;;;;;;9.03;100.00;98094.97;4982855;28;20254;-78
2024/02/11 05:00:40;;;;;;;45.60;26.00;;;;;;;9.03;100.00;98094.97;4997259;28;20235;-78
2024/02/11 05:03:06;;;;;;;44.50;25.37;;;;;;;9.03;100.00;98088.81;4997774;28;20203;-79
2024/02/11 05:05:34;;;;;;;44.57;25.07;;;;;;;9.01;100.00;98096.94;4997579;28;20227;-78
2024/02/11 05:08:04;;;;;;;48.57;26.87;;;;;;;9.02;100.00;98108.38;4997629;28;20298;-77
2024/02/11 05:10:34;;;;;;;50.53;26.83;;;;;;;9.02;100.00;98103.06;5010877;28;20235;-79
2024/02/11 05:13:04;;;;;;;46.47;26.00;;;;;;;9.02;100.00;98097.75;5007484;28;20730;-79
2024/02/11 05:15:32;;;;;;;47.87;25.83;;;;;;;9.03;100.00;98094.97;5002484;28;20212;-78
2024/02/11 05:18:00;;;;;;;46.30;25.33;;;;;;;9.04;100.00;98096.63;4996972;28;20203;-78
2024/02/11 05:20:29;;;;;;;46.77;26.23;;;;;;;9.05;100.00;98089.50;4997539;28;20227;-79
2024/02/11 05:22:57;;;;;;;45.87;26.07;;;;;;;9.07;100.00;98097.31;4997646;28;20211;-79
2024/02/11 05:25:25;;;;;;;44.53;25.83;;;;;;;9.05;100.00;98087.69;4996714;28;20224;-79
2024/02/11 05:27:55;;;;;;;50.00;27.37;;;;;;;9.07;100.00;98087.53;4999157;28;20207;-78
2024/02/11 05:30:23;;;;;;;45.80;26.53;;;;;;;9.04;100.00;98096.63;5000449;28;20280;-79
2024/02/11 05:32:51;;;;;;;47.03;25.13;;;;;;;9.06;100.00;98099.16;5001627;28;20253;-79
2024/02/11 05:35:19;;;;;;;46.50;26.90;;;;;;;9.03;100.00;98094.97;5002131;28;20214;-79
2024/02/11 05:37:46;;;;;;;43.47;24.23;;;;;;;9.04;100.00;98091.31;5001905;28;20214;-80
2024/02/11 05:40:13;;;;;;;45.97;25.60;;;;;;;9.04;100.00;98104.59;5002025;28;20270;-79
2024/02/11 05:42:40;;;;;;;48.27;26.20;;;;;;;9.06;100.00;98101.78;5002217;28;20206;-79
2024/02/11 05:45:07;;;;;;;48.83;27.13;;;;;;;9.07;100.00;98097.31;5000486;28;20228;-79
2024/02/11 05:47:33;;;;;;;46.37;24.37;;;;;;;9.07;100.00;98100.81;4999858;28;20291;-79
2024/02/11 05:50:02;;;;;;;46.20;25.00;;;;;;;9.07;100.00;98102.63;5001126;28;20227;-80
2024/02/11 05:52:29;;;;;;;44.13;25.90;;;;;;;9.05;100.00;98106.28;5001922;28;20211;-78
2024/02/11 05:54:55;;;;;;;42.33;24.83;;;;;;;9.07;100.00;98105.28;5001456;28;20200;-78
2024/02/11 05:57:22;;;;;;;42.90;25.30;;;;;;;9.07;100.00;98100.81;5001145;28;20215;-80
2024/02/11 05:59:49;;;;;;;43.87;25.93;;;;;;;9.08;100.00;98102.50;5001174;28;20291;-81
2024/02/11 06:02:16;;;;;;;42.73;23.83;;;;;;;9.08;100.00;98102.50;5000786;28;20204;-77
2024/02/11 06:04:43;;;;;;;39.73;24.07;;;;;;;9.09;100.00;98105.97;5000361;28;20231;-80
2024/02/11 06:07:11;;;;;;;45.37;24.83;;;;;;;9.09;100.00;98109.47;5000861;28;20216;-79
2024/02/11 06:09:38;;;;;;;41.10;24.40;;;;;;;9.08;100.00;98110.44;5000689;28;20247;-79
2024/02/11 06:12:06;;;;;;;48.17;25.97;;;;;;;9.09;100.00;98112.13;4998795;28;20207;-78
2024/02/11 06:14:33;;;;;;;45.20;25.50;;;;;;;9.08;100.00;98105.16;4999747;28;20200;-79
2024/02/11 06:17:00;;;;;;;46.97;25.47;;;;;;;9.08;100.00;98110.44;4999562;28;20204;-79
2024/02/11 06:19:26;;;;;;;45.53;25.47;;;;;;;9.07;100.00;98115.91;5000821;28;20254;-79
2024/02/11 06:21:55;;;;;;;45.83;26.33;;;;;;;9.05;100.00;98116.88;4999125;28;20199;-77
2024/02/11 06:24:24;;;;;;;49.57;25.80;;;;;;;9.05;100.00;98108.09;5001149;28;20291;-78
2024/02/11 06:26:51;;;;;;;49.10;26.37;;;;;;;9.04;100.00;98112.56;5001633;28;20203;-78
2024/02/11 06:29:18;;;;;;;47.33;25.33;;;;;;;9.03;100.00;98116.19;5001074;28;20307;-79
2024/02/11 06:31:44;;;;;;;46.60;25.47;;;;;;;9.01;100.00;98118.16;5001504;28;20204;-80
2024/02/11 06:34:11;;;;;;;48.93;25.40;;;;;;;9.03;100.00;98129.47;5000761;28;20804;-79
2024/02/11 06:36:37;;;;;;;46.80;24.57;;;;;;;8.98;100.00;98115.81;4999639;28;20250;-78
2024/02/11 06:39:10;;;;;;;49.07;24.20;;;;;;;8.97;100.00;98122.09;4999192;28;20223;-79
2024/02/11 06:41:38;;;;;;;48.20;25.13;;;;;;;8.96;100.00;98125.72;4999423;28;20242;-79
2024/02/11 06:44:06;;;;;;;45.57;25.30;;;;;;;8.96;100.00;98127.56;5000137;28;20216;-79
2024/02/11 06:46:32;;;;;;;49.43;27.37;;;;;;;8.96;100.00;98120.41;4999713;28;20254;-79
2024/02/11 06:49:00;;;;;;;51.47;26.90;;;;;;;8.98;100.00;98120.28;4998910;28;20207;-80
2024/02/11 06:51:28;;;;;;;54.90;26.40;;;;;;;8.98;100.00;98129.06;5000126;28;20211;-80
2024/02/11 06:53:55;;;;;;;52.83;28.40;;;;;;;8.99;100.00;98130.75;5003848;28;20207;-79
2024/02/11 06:56:23;;;;;;;49.17;27.50;;;;;;;8.98;100.00;98131.72;5005385;28;20201;-79
2024/02/11 06:58:50;;;;;;;50.00;28.10;;;;;;;8.98;100.00;98139.69;5006761;28;20212;-78
2024/02/11 07:01:18;;;;;;;49.70;27.67;;;;;;;9.00;100.00;98142.22;4990891;28;20207;-78
2024/02/11 07:03:47;;;;;;;56.97;28.77;;;;;;;8.98;100.00;98147.66;5006646;28;20306;-79
2024/02/11 07:06:13;;;;;;;51.63;27.83;;;;;;;8.98;100.00;98150.31;5010537;28;20588;-78
2024/02/11 07:08:40;;;;;;;57.30;27.80;;;;;;;9.00;100.00;98144.88;5020083;28;20514;-80
2024/02/11 07:11:08;;;;;;;60.37;29.03;;;;;;;9.00;100.00;98152.81;5005933;28;20207;-79
2024/02/11 07:13:34;;;;;;;58.20;28.53;;;;;;;9.00;100.00;98153.66;5005694;28;20204;-79
2024/02/11 07:16:08;;;;;;;64.70;31.00;;;;;;;9.00;100.00;98160.78;5015904;28;20664;-79
2024/02/11 07:18:34;;;;;;;60.30;29.90;;;;;;;8.96;100.00;98157.59;5006342;28;20759;-79
2024/02/11 07:21:01;;;;;;;62.67;30.37;;;;;;;8.96;100.00;98159.41;4998848;28;20228;-79
2024/02/11 07:23:27;;;;;;;61.47;27.87;;;;;;;8.97;100.00;98161.91;4999407;28;20218;-79
2024/02/11 07:25:54;;;;;;;63.27;30.43;;;;;;;8.97;100.00;98161.91;4998670;28;20239;-79
2024/02/11 07:28:22;;;;;;;59.03;29.83;;;;;;;8.98;100.00;98178.69;4998727;28;20212;-80
2024/02/11 07:30:48;;;;;;;59.57;28.93;;;;;;;8.97;100.00;98175.19;4999200;28;20228;-77
2024/02/11 07:33:18;;;;;;;67.27;30.23;;;;;;;8.97;100.00;98177.84;5004793;28;20215;-79
2024/02/11 07:35:46;;;;;;;59.93;28.77;;;;;;;8.97;100.00;98177.84;5003477;28;20203;-79
2024/02/11 07:38:13;;;;;;;57.43;30.13;;;;;;;8.96;100.00;98178.81;4997940;28;20212;-78
2024/02/11 07:40:40;;;;;;;59.30;29.53;;;;;;;8.96;100.00;98185.94;5016132;28;20230;-78
2024/02/11 07:43:07;;;;;;;60.70;31.33;;;;;;;8.95;100.00;98182.50;5017100;28;20211;-78
2024/02/11 07:45:33;;;;;;;67.17;31.23;;;;;;;8.95;100.00;98187.81;5017430;28;20284;-80
2024/02/11 07:48:00;;;;;;;61.87;30.80;;;;;;;8.95;100.00;98193.09;5000222;28;20672;-78
2024/02/11 07:50:28;;;;;;;64.73;31.73;;;;;;;8.95;100.00;98190.47;5007224;28;20934;-79
2024/02/11 07:52:55;;;;;;;58.90;31.40;;;;;;;8.96;100.00;98196.56;5001563;28;20210;-79
2024/02/11 07:55:22;;;;;;;64.57;32.53;;;;;;;8.92;100.00;98198.72;4998264;28;20203;-78
2024/02/11 07:57:49;;;;;;;64.77;32.67;;;;;;;8.93;100.00;98196.88;4997754;28;20200;-79
2024/02/11 08:00:16;;;;;;;62.03;30.30;;;;;;;8.92;100.00;98198.72;4994263;28;20247;-80
2024/02/11 08:02:42;;;;;;;61.83;31.20;;;;;;;8.92;100.00;98213.78;4995426;28;20232;-81
2024/02/11 08:05:10;;;;;;;65.73;30.93;;;;;;;8.93;100.00;98216.31;4996404;28;20232;-80
2024/02/11 08:07:38;;;;;;;60.67;30.40;;;;;;;8.94;100.00;98214.50;5002126;28;20230;-80
2024/02/11 08:10:07;;;;;;;64.73;30.87;;;;;;;8.93;100.00;98221.63;5006911;28;20486;-81
2024/02/11 08:12:34;;;;;;;61.57;30.03;;;;;;;8.97;100.00;98230.09;5005932;28;20207;-80
2024/02/11 08:15:00;;;;;;;63.13;30.07;;;;;;;8.97;100.00;98233.59;5005472;28;21003;-79
2024/02/11 08:17:27;;;;;;;60.00;31.03;;;;;;;9.00;100.00;98230.66;5001436;28;20222;-80
2024/02/11 08:19:54;;;;;;;63.50;31.13;;;;;;;9.01;100.00;98232.31;5000493;28;20224;-80
2024/02/11 08:22:21;;;;;;;61.73;29.70;;;;;;;9.01;100.00;98232.31;5002366;28;20252;-81
2024/02/11 08:24:48;;;;;;;62.90;30.30;;;;;;;9.02;100.00;98233.16;5001436;28;20203;-78
2024/02/11 08:27:15;;;;;;;58.43;30.50;;;;;;;9.02;100.00;98235.81;5001064;28;20214;-78
2024/02/11 08:29:48;;;;;;;58.10;30.07;;;;;;;9.01;100.00;98229.66;4994042;28;20223;-79
2024/02/11 08:32:14;;;;;;;61.23;29.17;;;;;;;9.01;100.00;98229.66;4979146;28;20224;-78
2024/02/11 08:34:41;;;;;;;67.23;32.33;;;;;;;9.03;100.00;98234.84;4993611;28;20207;-78
2024/02/11 08:37:08;;;;;;;63.83;30.93;;;;;;;9.03;100.00;98233.03;4995711;28;20219;-77
2024/02/11 08:39:34;;;;;;;61.63;30.17;;;;;;;9.07;100.00;98228.25;4995693;28;20224;-78
2024/02/11 08:42:05;;;;;;;60.27;30.97;;;;;;;9.07;100.00;98232.72;4998312;28;20226;-80
2024/02/11 08:44:31;;;;;;;60.33;30.60;;;;;;;9.08;100.00;98229.09;5002028;28;20208;-78
2024/02/11 08:46:58;;;;;;;65.73;30.90;;;;;;;9.10;100.00;98235.09;4998172;28;20223;-79
2024/02/11 08:49:24;;;;;;;64.93;31.17;;;;;;;9.12;100.00;98230.47;5000667;28;20223;-79
2024/02/11 08:51:51;;;;;;;63.50;31.43;;;;;;;9.15;100.00;98230.16;5000844;28;20204;-79
2024/02/11 08:54:18;;;;;;;59.77;30.27;;;;;;;9.18;100.00;98237.84;5002113;28;20580;-80
2024/02/11 08:56:44;;;;;;;57.80;29.67;;;;;;;9.20;100.00;98233.22;5003053;28;20262;-78
2024/02/11 08:59:13;;;;;;;66.13;31.87;;;;;;;9.23;100.00;98238.25;4996210;28;20227;-79
2024/02/11 09:01:39;;;;;;;55.43;30.10;;;;;;;9.26;100.00;98237.97;4998168;28;20204;-78
2024/02/11 09:04:06;;;;;;;60.30;28.77;;;;;;;9.25;100.00;98242.44;5001965;28;20654;-78
2024/02/11 09:06:34;;;;;;;64.43;32.30;;;;;;;9.26;100.00;98244.09;4998275;28;20236;-77
2024/02/11 09:09:00;;;;;;;58.87;28.63;;;;;;;9.29;100.00;98249.13;5008148;28;20295;-77
2024/02/11 09:11:27;;;;;;;57.93;30.07;;;;;;;9.32;100.00;98253.28;5001934;28;20208;-77
2024/02/11 09:13:53;;;;;;;58.47;31.10;;;;;;;9.33;100.00;98250.47;5002380;28;20208;-78
2024/02/11 09:16:25;;;;;;;57.40;29.83;;;;;;;9.35;100.00;98258.31;4998685;28;20715;-78
2024/02/11 09:18:52;;;;;;;56.63;30.30;;;;;;;9.37;100.00;98254.53;5002582;28;20204;-76
2024/02/11 09:21:18;;;;;;;59.87;29.27;;;;;;;9.37;100.00;98257.19;4996661;28;20204;-78
2024/02/11 09:23:45;;;;;;;65.70;29.40;;;;;;;9.37;100.00;98272.28;5003136;28;20234;-78
2024/02/11 09:26:11;;;;;;;64.10;30.37;;;;;;;9.37;100.00;98259.84;5001001;28;20259;-77
2024/02/11 09:28:38;;;;;;;60.20;31.03;;;;;;;9.35;100.00;98266.28;5000090;28;20205;-78
2024/02/11 09:31:05;;;;;;;66.97;32.47;;;;;;;9.34;100.00;98272.56;4999893;28;20229;-78
2024/02/11 09:33:33;;;;;;;70.13;33.37;;;;;;;9.29;100.00;98270.38;4997566;28;20703;-78
2024/02/11 09:35:59;;;;;;;69.97;33.03;;;;;;;9.32;100.00;98269.22;4999837;28;20660;-78
2024/02/11 09:38:26;;;;;;;68.13;31.57;;;;;;;9.32;100.00;98274.53;5000604;28;20207;-78
2024/02/11 09:40:53;;;;;;;67.50;31.23;;;;;;;9.30;100.00;98282.69;5005290;28;20263;-78
2024/02/11 09:43:20;;;;;;;66.33;32.03;;;;;;;9.29;100.00;98275.69;5004679;28;20298;-79
2024/02/11 09:45:50;;;;;;;71.80;30.93;;;;;;;9.29;100.00;98282.81;5005404;28;20232;-77
2024/02/11 09:48:18;;;;;;;77.23;32.23;;;;;;;9.29;100.00;98290.78;5003743;28;20252;-78
2024/02/11 09:50:46;;;;;;;69.17;32.03;;;;;;;9.29;100.00;98283.66;4998333;28;20246;-78
2024/02/11 09:53:15;;;;;;;82.00;33.70;;;;;;;9.26;100.00;98288.41;5005067;28;20222;-78
2024/02/11 09:55:45;;;;;;;76.00;33.27;;;;;;;9.25;100.00;98290.25;5002623;28;20210;-78
2024/02/11 09:58:11;;;;;;;71.57;32.03;;;;;;;9.25;100.00;98284.94;5002268;28;20830;-78
2024/02/11 10:00:38;;;;;;;74.60;31.97;;;;;;;9.24;100.00;98285.91;4997261;28;20227;-78
2024/02/11 10:03:08;;;;;;;65.37;31.23;;;;;;;9.22;100.00;98281.72;4998927;28;20200;-79
2024/02/11 10:05:39;;;;;;;64.47;30.80;;;;;;;9.22;100.00;98285.22;5000222;28;20233;-79
2024/02/11 10:08:13;;;;;;;62.73;29.07;;;;;;;9.23;100.00;98288.72;5004241;28;20661;-78
2024/02/11 10:10:40;;;;;;;62.63;29.97;;;;;;;9.23;100.00;98291.34;5003347;28;20220;-77
2024/02/11 10:13:08;;;;;;;60.93;29.00;;;;;;;9.23;100.00;98286.06;5010899;28;20212;-79
2024/02/11 10:15:35;;;;;;;59.40;29.07;;;;;;;9.22;100.00;98300.31;5001194;28;20513;-79
2024/02/11 10:18:04;;;;;;;58.33;29.33;;;;;;;9.24;100.00;98299.19;5003054;28;20204;-78
2024/02/11 10:20:31;;;;;;;56.10;28.67;;;;;;;9.26;100.00;98296.38;5000024;28;20225;-78
2024/02/11 10:22:58;;;;;;;59.90;28.90;;;;;;;9.26;100.00;98297.22;5006936;28;20862;-78
2024/02/11 10:25:27;;;;;;;59.60;28.80;;;;;;;9.25;100.00;98300.03;5007357;28;20204;-78
2024/02/11 10:27:53;;;;;;;66.17;31.10;;;;;;;9.25;100.00;98294.72;5004537;28;20357;-78
2024/02/11 10:30:19;;;;;;;57.33;27.93;;;;;;;9.25;100.00;98300.03;5006102;28;20234;-79
2024/02/11 10:32:46;;;;;;;59.50;28.60;;;;;;;9.26;100.00;98291.06;5008610;28;20224;-78
2024/02/11 10:35:14;;;;;;;56.30;27.30;;;;;;;9.26;100.00;98299.88;5003158;28;20458;-78
2024/02/11 10:37:43;;;;;;;58.83;29.17;;;;;;;9.29;100.00;98298.75;5004566;28;20275;-78
2024/02/11 10:40:11;;;;;;;59.73;28.00;;;;;;;9.29;100.00;98307.56;5003167;28;20247;-79
2024/02/11 10:42:40;;;;;;;57.90;27.30;;;;;;;9.30;100.00;98300.44;5006652;28;20212;-77
2024/02/11 10:45:09;;;;;;;59.67;28.20;;;;;;;9.31;100.00;98302.09;5013442;28;20212;-78
2024/02/11 10:47:36;;;;;;;52.63;26.67;;;;;;;9.34;100.00;98299.13;5008669;28;20250;-79
2024/02/11 10:50:03;;;;;;;54.27;27.67;;;;;;;9.33;100.00;98292.13;5003026;28;20227;-78
2024/02/11 10:52:32;;;;;;;58.37;29.53;;;;;;;9.35;100.00;98296.34;5005626;28;20207;-78
2024/02/11 10:55:03;;;;;;;57.70;27.83;;;;;;;9.37;100.00;98298.84;4994192;28;20201;-77
2024/02/11 10:57:36;;;;;;;52.57;26.87;;;;;;;9.40;100.00;98301.22;5005188;28;20199;-78
2024/02/11 11:00:07;;;;;;;56.87;26.80;;;;;;;9.38;100.00;98306.66;5005626;28;20740;-77
2024/02/11 11:02:36;;;;;;;52.87;26.93;;;;;;;9.44;100.00;98304.41;5006128;28;20207;-77
2024/02/11 11:05:06;;;;;;;53.40;26.97;;;;;;;9.45;100.00;98308.75;5006582;28;20199;-78
2024/02/11 11:07:35;;;;;;;52.97;26.67;;;;;;;9.49;100.00;98312.78;5004990;28;20243;-78
2024/02/11 11:10:02;;;;;;;51.93;27.17;;;;;;;9.48;100.00;98309.28;5002769;28;20215;-77
2024/02/11 11:12:28;;;;;;;51.70;26.50;;;;;;;9.47;100.00;98306.78;5011665;28;20239;-77
2024/02/11 11:14:57;;;;;;;55.53;27.77;;;;;;;9.47;100.00;98299.66;5005721;28;20215;-78
2024/02/11 11:17:26;;;;;;;55.83;27.90;;;;;;;9.48;100.00;98305.81;5011489;28;20242;-79